Time;durP1;ratioP1;P1;durP2;ratioP2;P2;SDS_P1;SDS_P2;PMS_P1;PMS_P2;Temp;Humidity;BMP_temperature;BMP_pressure;BME280_temperature;BME280_humidity;BME280_pressure;Samples;Min_cycle;Max_cycle;Signal;HPM_P1;HPM_P2
2021/11/26 00:01:56;;;;;;;24.02;13.77;;;;;;;3.97;59.20;99083.56;10387919;28;20063;-63
2021/11/26 00:06:58;;;;;;;20.10;13.25;;;;;;;3.94;59.58;99068.22;10388005;28;20427;-64
2021/11/26 00:11:59;;;;;;;19.30;14.35;;;;;;;3.85;59.98;99063.44;10388434;28;20128;-63
2021/11/26 00:17:04;;;;;;;23.38;15.73;;;;;;;3.81;59.74;99059.28;10387580;28;20136;-63
2021/11/26 00:22:06;;;;;;;34.88;22.25;;;;;;;3.68;59.89;99053.84;10387590;28;20148;-63
2021/11/26 00:27:08;;;;;;;21.15;14.35;;;;;;;3.83;60.03;99049.72;10386188;28;20632;-64
2021/11/26 00:32:10;;;;;;;19.20;13.30;;;;;;;3.94;60.04;99031.16;10387382;28;20072;-63
2021/11/26 00:37:12;;;;;;;17.92;12.48;;;;;;;3.97;60.20;99034.41;10387299;28;20401;-63
2021/11/26 00:42:14;;;;;;;40.83;21.77;;;;;;;3.98;59.86;99025.75;10386212;28;20053;-63
2021/11/26 00:47:16;;;;;;;34.95;20.13;;;;;;;4.00;59.89;99015.34;10386708;28;20132;-64
2021/11/26 00:52:18;;;;;;;28.10;17.58;;;;;;;4.02;59.95;99009.19;10385433;28;20799;-63
2021/11/26 00:57:20;;;;;;;34.35;18.85;;;;;;;4.13;59.73;99004.31;10386320;28;20060;-63
2021/11/26 01:02:22;;;;;;;26.08;16.77;;;;;;;4.21;59.60;98997.00;10385776;28;20069;-63
2021/11/26 01:07:23;;;;;;;27.00;17.55;;;;;;;4.20;59.65;98997.94;10377351;28;20119;-63
2021/11/26 01:12:26;;;;;;;26.17;16.50;;;;;;;3.98;59.86;98986.97;10384878;28;20486;-63
2021/11/26 01:17:27;;;;;;;27.40;17.58;;;;;;;3.84;60.05;98985.00;10379819;28;20396;-63
2021/11/26 01:22:30;;;;;;;35.17;22.25;;;;;;;3.82;60.28;98978.22;10382540;28;20045;-63
2021/11/26 01:27:32;;;;;;;34.60;21.10;;;;;;;3.92;60.18;98966.56;10382700;28;20505;-64
2021/11/26 01:32:34;;;;;;;40.15;23.42;;;;;;;3.91;60.09;98967.47;10383289;28;20500;-63
2021/11/26 01:37:36;;;;;;;44.63;27.60;;;;;;;3.96;60.03;98962.06;10382830;28;20047;-63
2021/11/26 01:42:38;;;;;;;44.90;26.85;;;;;;;3.95;60.22;98956.06;10383403;28;20069;-63
2021/11/26 01:47:40;;;;;;;29.88;18.13;;;;;;;3.97;60.05;98949.06;10383445;28;20045;-64
2021/11/26 01:52:42;;;;;;;35.33;21.10;;;;;;;4.00;59.94;98942.91;10382525;28;20065;-63
2021/11/26 01:57:46;;;;;;;34.13;21.08;;;;;;;3.90;60.49;98934.75;10383341;28;20045;-63
2021/11/26 02:02:47;;;;;;;33.67;20.67;;;;;;;3.76;60.90;98930.19;10382837;28;20041;-63
2021/11/26 02:07:50;;;;;;;37.75;22.45;;;;;;;3.68;60.81;98937.50;10382235;28;20506;-63
2021/11/26 02:12:52;;;;;;;35.58;20.80;;;;;;;3.64;61.00;98924.81;10382643;28;20059;-63
2021/11/26 02:17:56;;;;;;;29.58;18.17;;;;;;;3.56;61.17;98919.13;10382222;28;20061;-64
2021/11/26 02:22:58;;;;;;;40.20;22.58;;;;;;;3.66;60.93;98922.97;10381732;28;20049;-63
2021/11/26 02:28:02;;;;;;;30.80;18.55;;;;;;;3.64;60.97;98914.47;10383392;28;20080;-63
2021/11/26 02:33:12;;;;;;;37.10;23.70;;;;;;;3.65;61.15;98895.44;10382662;28;20052;-63
2021/11/26 02:38:14;;;;;;;32.03;21.10;;;;;;;3.62;60.96;98893.00;10381596;28;20129;-63
2021/11/26 02:43:16;;;;;;;24.52;17.67;;;;;;;3.61;61.28;98888.75;10382184;28;20046;-63
2021/11/26 02:48:18;;;;;;;25.00;16.90;;;;;;;3.64;61.21;98873.91;10381849;28;20461;-63
2021/11/26 02:53:20;;;;;;;21.98;14.73;;;;;;;3.84;60.68;98858.28;10390475;28;20045;-64
2021/11/26 02:58:22;;;;;;;18.98;13.10;;;;;;;3.90;60.53;98853.72;10390362;28;20050;-63
2021/11/26 03:03:25;;;;;;;22.05;14.25;;;;;;;3.75;60.79;98839.78;10393600;28;20060;-63
2021/11/26 03:08:28;;;;;;;21.27;14.00;;;;;;;3.59;61.01;98833.69;10396551;28;20055;-63
2021/11/26 03:13:30;;;;;;;19.77;13.57;;;;;;;3.72;61.14;98837.34;10396669;28;20079;-63
2021/11/26 03:18:33;;;;;;;25.30;14.80;;;;;;;3.63;61.31;98817.13;10377740;28;20079;-63
2021/11/26 03:23:34;;;;;;;22.48;14.20;;;;;;;3.50;61.41;98824.63;10396485;28;20139;-63
2021/11/26 03:28:36;;;;;;;22.55;14.02;;;;;;;3.36;61.58;98813.28;10396582;28;20051;-63
2021/11/26 03:33:38;;;;;;;24.83;14.20;;;;;;;3.20;61.77;98802.00;10397292;28;20054;-62
2021/11/26 03:38:40;;;;;;;23.00;14.82;;;;;;;2.95;61.97;98790.25;10394937;28;20053;-63
2021/11/26 03:43:42;;;;;;;20.77;14.75;;;;;;;2.80;62.38;98782.41;10396707;28;20061;-63
2021/11/26 03:48:43;;;;;;;22.80;14.55;;;;;;;2.60;62.47;98778.16;10397353;28;20045;-62
2021/11/26 03:53:45;;;;;;;24.17;14.80;;;;;;;2.48;63.01;98763.22;10396664;28;20061;-63
2021/11/26 03:58:47;;;;;;;22.85;15.38;;;;;;;2.46;63.07;98757.28;10394823;28;20052;-63
2021/11/26 04:03:48;;;;;;;22.33;15.48;;;;;;;2.46;63.21;98754.72;10392674;28;20053;-63
2021/11/26 04:08:50;;;;;;;22.10;15.30;;;;;;;2.45;63.57;98747.91;10390273;28;20495;-63
2021/11/26 04:13:52;;;;;;;22.85;14.48;;;;;;;2.58;63.53;98746.41;10387754;28;20561;-63
2021/11/26 04:18:54;;;;;;;22.25;14.93;;;;;;;2.69;63.42;98745.91;10388527;28;20398;-64
2021/11/26 04:23:56;;;;;;;23.35;13.88;;;;;;;2.76;63.03;98743.00;10388684;28;20053;-63
2021/11/26 04:28:59;;;;;;;21.35;14.05;;;;;;;2.74;62.79;98724.16;10388120;28;20055;-63
2021/11/26 04:34:00;;;;;;;22.27;13.95;;;;;;;2.60;63.34;98734.25;10387441;28;20148;-63
2021/11/26 04:39:04;;;;;;;25.63;15.07;;;;;;;2.71;63.44;98726.03;10388361;28;20502;-63
2021/11/26 04:44:05;;;;;;;22.85;15.50;;;;;;;2.73;63.80;98711.31;10386969;28;20464;-63
2021/11/26 04:49:07;;;;;;;20.42;14.18;;;;;;;2.82;63.61;98711.72;10387924;28;20056;-63
2021/11/26 04:54:09;;;;;;;22.05;15.23;;;;;;;2.77;63.84;98700.75;10386240;28;20049;-62
2021/11/26 04:59:11;;;;;;;21.30;14.73;;;;;;;2.84;63.83;98694.41;10388218;28;20060;-62
2021/11/26 05:04:12;;;;;;;22.80;14.00;;;;;;;2.80;63.81;98679.13;10386368;28;20071;-62
2021/11/26 05:09:14;;;;;;;23.13;14.32;;;;;;;2.84;63.86;98676.34;10386586;28;20049;-63
2021/11/26 05:14:19;;;;;;;24.73;14.20;;;;;;;3.00;63.83;98669.50;10385158;28;20051;-63
2021/11/26 05:19:21;;;;;;;20.95;15.02;;;;;;;2.95;63.74;98663.72;10386374;28;20129;-63
2021/11/26 05:24:23;;;;;;;23.40;14.85;;;;;;;2.77;64.16;98653.44;10384768;28;20057;-63
2021/11/26 05:29:24;;;;;;;37.13;21.20;;;;;;;2.93;64.00;98647.47;10386338;28;20049;-63
2021/11/26 05:34:26;;;;;;;61.95;38.35;;;;;;;3.04;63.81;98640.03;10385174;28;20045;-63
2021/11/26 05:39:28;;;;;;;54.33;35.30;;;;;;;3.11;63.82;98634.56;10385852;28;20217;-63
2021/11/26 05:44:29;;;;;;;25.38;15.60;;;;;;;3.16;63.77;98627.41;10385079;28;20049;-63
2021/11/26 05:49:31;;;;;;;25.90;14.80;;;;;;;3.09;63.85;98633.81;10383790;28;20088;-63
2021/11/26 05:54:33;;;;;;;26.13;14.38;;;;;;;3.22;63.61;98617.59;10384639;28;20049;-63
2021/11/26 05:59:35;;;;;;;21.05;14.15;;;;;;;3.36;63.29;98609.13;10385448;28;20046;-63
2021/11/26 06:04:36;;;;;;;25.30;13.98;;;;;;;3.47;63.07;98601.69;10384432;28;20156;-63
2021/11/26 06:09:38;;;;;;;21.10;13.63;;;;;;;3.50;63.16;98589.41;10385078;28;20041;-63
2021/11/26 06:14:40;;;;;;;22.70;13.60;;;;;;;3.50;63.09;98593.75;10384781;28;20133;-63
2021/11/26 06:19:42;;;;;;;21.83;13.70;;;;;;;3.46;63.22;98564.66;10383777;28;20494;-63
2021/11/26 06:24:43;;;;;;;22.50;12.75;;;;;;;3.45;63.38;98564.75;10387293;28;20600;-64
2021/11/26 06:29:45;;;;;;;21.85;13.90;;;;;;;3.50;63.35;98552.41;10393175;28;20052;-63
2021/11/26 06:34:47;;;;;;;25.50;14.27;;;;;;;3.40;63.45;98541.72;10392200;28;20056;-63
2021/11/26 06:39:48;;;;;;;25.77;14.25;;;;;;;3.36;63.64;98536.78;10391198;28;20064;-63
2021/11/26 06:44:52;;;;;;;27.17;14.98;;;;;;;3.30;63.75;98534.53;10391030;28;20053;-63
2021/11/26 06:49:53;;;;;;;32.05;17.08;;;;;;;3.30;63.81;98539.69;10392347;28;20053;-63
2021/11/26 06:54:55;;;;;;;30.35;17.70;;;;;;;3.23;63.81;98543.53;10392041;28;20185;-63
2021/11/26 06:59:57;;;;;;;24.10;14.20;;;;;;;3.19;63.96;98535.09;10391693;28;20315;-63
2021/11/26 07:05:00;;;;;;;27.33;13.95;;;;;;;3.32;63.75;98527.53;10391225;28;20516;-63
2021/11/26 07:10:04;;;;;;;30.70;14.18;;;;;;;3.32;63.69;98522.34;10391300;28;20084;-62
2021/11/26 07:15:09;;;;;;;25.45;13.85;;;;;;;3.33;63.61;98516.28;10390812;28;20058;-64
2021/11/26 07:20:11;;;;;;;25.63;13.82;;;;;;;3.35;63.44;98504.97;10390289;28;20081;-63
2021/11/26 07:25:14;;;;;;;27.27;13.98;;;;;;;3.45;63.23;98505.31;10390182;28;20068;-63
2021/11/26 07:30:15;;;;;;;26.25;13.93;;;;;;;3.42;63.16;98493.38;10390315;28;20053;-63
2021/11/26 07:35:17;;;;;;;27.55;13.52;;;;;;;3.46;63.26;98481.09;10389807;28;20060;-63
2021/11/26 07:40:19;;;;;;;25.45;13.65;;;;;;;3.50;63.17;98487.78;10390179;28;20053;-62
2021/11/26 07:45:20;;;;;;;24.67;14.20;;;;;;;3.64;62.83;98480.13;10388892;28;20056;-72
2021/11/26 07:50:22;;;;;;;26.73;13.30;;;;;;;3.74;62.73;98469.19;10386489;28;20052;-72
2021/11/26 07:55:24;;;;;;;29.10;13.32;;;;;;;3.88;62.21;98464.09;10388057;28;20123;-73
2021/11/26 08:00:25;;;;;;;23.63;12.68;;;;;;;3.97;62.05;98452.41;10386134;28;20045;-72
2021/11/26 08:05:31;;;;;;;25.13;13.20;;;;;;;4.00;61.88;98449.69;10388892;28;20057;-72
2021/11/26 08:10:32;;;;;;;25.00;12.70;;;;;;;4.02;62.01;98447.84;10387293;28;20084;-73
2021/11/26 08:15:35;;;;;;;22.73;12.32;;;;;;;4.08;61.75;98442.31;10388370;28;20046;-73
2021/11/26 08:20:37;;;;;;;24.52;11.80;;;;;;;4.03;61.93;98430.56;10388629;28;20051;-73
2021/11/26 08:25:39;;;;;;;23.42;11.68;;;;;;;4.16;61.61;98423.75;10384995;28;20057;-73
2021/11/26 08:30:40;;;;;;;24.13;11.85;;;;;;;4.13;61.78;98411.00;10387860;28;20045;-72
2021/11/26 08:35:42;;;;;;;21.30;11.65;;;;;;;4.33;61.34;98402.91;10388028;28;20059;-73
2021/11/26 08:40:44;;;;;;;24.17;12.52;;;;;;;4.27;61.54;98391.16;10385892;28;20738;-73
2021/11/26 08:45:47;;;;;;;24.15;10.98;;;;;;;4.32;61.45;98377.94;10384748;28;20053;-73
2021/11/26 08:50:49;;;;;;;20.63;10.45;;;;;;;4.32;61.26;98371.03;10386250;28;20055;-73
2021/11/26 08:55:54;;;;;;;26.35;13.15;;;;;;;4.52;61.18;98362.91;10385996;28;20611;-74
2021/11/26 09:00:55;;;;;;;34.53;19.83;;;;;;;4.65;60.87;98358.66;10387200;28;20056;-74
2021/11/26 09:05:58;;;;;;;30.30;16.17;;;;;;;4.53;60.99;98356.81;10385404;28;20057;-74
2021/11/26 09:11:00;;;;;;;24.80;12.95;;;;;;;4.66;61.09;98352.53;10382637;28;20045;-74
2021/11/26 09:16:02;;;;;;;35.22;16.30;;;;;;;4.83;60.90;98351.50;10381737;28;20296;-74
2021/11/26 09:21:04;;;;;;;30.20;14.60;;;;;;;4.70;61.63;98333.31;10376365;28;20054;-74
2021/11/26 09:26:07;;;;;;;22.52;11.18;;;;;;;4.74;61.77;98333.13;10383645;28;20057;-74
2021/11/26 09:31:09;;;;;;;19.25;10.27;;;;;;;4.85;61.38;98317.75;10379579;28;20049;-74
2021/11/26 09:36:11;;;;;;;18.80;10.05;;;;;;;4.88;61.29;98314.97;10384197;28;20313;-74
2021/11/26 09:41:15;;;;;;;18.10;9.52;;;;;;;4.69;61.41;98308.34;10383617;28;20037;-74
2021/11/26 09:46:37;;;;;;;22.20;10.02;;;;;;;4.72;61.66;98302.97;10382400;28;20081;-74
2021/11/26 09:51:38;;;;;;;18.52;8.93;;;;;;;4.72;61.95;98303.91;10385202;28;20497;-73
2021/11/26 09:56:40;;;;;;;16.60;8.75;;;;;;;4.68;62.00;98304.06;10384207;28;20211;-74
2021/11/26 10:01:42;;;;;;;16.75;8.68;;;;;;;4.75;62.10;98290.75;10376912;28;20045;-74
2021/11/26 10:06:45;;;;;;;18.55;8.52;;;;;;;4.66;62.42;98282.63;10380615;28;20076;-75
2021/11/26 10:11:55;;;;;;;20.35;10.00;;;;;;;4.70;62.56;98268.56;10383357;28;20061;-74
2021/11/26 10:17:14;;;;;;;18.45;9.52;;;;;;;4.79;62.98;98261.97;10383307;28;20430;-75
2021/11/26 10:22:23;;;;;;;21.50;10.27;;;;;;;4.89;62.53;98247.53;10375111;28;20061;-75
2021/11/26 10:27:51;;;;;;;17.20;8.73;;;;;;;4.94;62.94;98245.50;10380864;28;20049;-76
2021/11/26 10:32:59;;;;;;;19.40;9.32;;;;;;;5.05;62.77;98226.66;10383744;28;20068;-74
2021/11/26 10:38:03;;;;;;;18.88;8.48;;;;;;;5.22;62.51;98214.28;10381035;28;20050;-74
2021/11/26 10:43:17;;;;;;;18.45;8.63;;;;;;;5.27;62.05;98206.19;10384316;28;20064;-74
2021/11/26 10:59:00;;;;;;;17.90;9.10;;;;;;;5.52;61.65;98163.00;10381905;28;20046;-74
2021/11/26 11:04:15;;;;;;;15.57;7.78;;;;;;;5.53;60.89;98161.22;10382171;28;20418;-75
2021/11/26 11:09:17;;;;;;;12.65;7.28;;;;;;;5.58;61.15;98143.59;10382610;28;20061;-74
2021/11/26 11:14:21;;;;;;;17.90;9.05;;;;;;;5.62;61.18;98139.00;10388658;28;20148;-74
2021/11/26 11:19:25;;;;;;;15.95;9.10;;;;;;;5.53;61.11;98133.53;10389508;28;20139;-74
2021/11/26 11:24:28;;;;;;;15.77;8.25;;;;;;;5.59;60.79;98118.50;10388552;28;20391;-75
2021/11/26 11:29:30;;;;;;;16.75;7.82;;;;;;;5.63;60.68;98104.38;10387697;28;20038;-74
2021/11/26 11:34:33;;;;;;;15.57;7.03;;;;;;;5.51;60.63;98106.06;10389974;28;20056;-74
2021/11/26 11:39:52;;;;;;;14.10;6.43;;;;;;;5.29;60.66;98098.06;10387637;28;20042;-74
2021/11/26 11:44:56;;;;;;;13.05;7.18;;;;;;;5.31;60.93;98096.22;10389255;28;20057;-75
2021/11/26 11:50:09;;;;;;;14.45;7.22;;;;;;;5.18;60.42;98079.81;10389286;28;20130;-74
2021/11/26 11:55:23;;;;;;;12.77;6.55;;;;;;;5.27;60.21;98076.59;10387060;28;20141;-74
2021/11/26 12:00:35;;;;;;;12.50;7.20;;;;;;;5.35;59.93;98063.97;10387009;28;20132;-74
2021/11/26 12:05:41;;;;;;;13.05;7.07;;;;;;;5.42;60.37;98049.63;10388188;28;20050;-74
2021/11/26 12:10:49;;;;;;;15.95;7.13;;;;;;;5.19;60.68;98045.19;10386144;28;20103;-74
2021/11/26 12:16:07;;;;;;;14.18;7.70;;;;;;;4.98;60.48;98037.13;10387345;28;20057;-74
2021/11/26 12:21:09;;;;;;;12.38;6.80;;;;;;;5.30;60.50;98021.97;10387210;28;20340;-74
2021/11/26 12:26:19;;;;;;;14.27;6.78;;;;;;;5.44;59.82;98021.84;10387371;28;20056;-74
2021/11/26 12:31:28;;;;;;;12.10;7.18;;;;;;;5.29;59.60;98017.72;10387246;28;20046;-74
2021/11/26 12:36:48;;;;;;;14.18;7.50;;;;;;;5.39;59.21;97992.84;10387881;28;20490;-74
2021/11/26 12:41:57;;;;;;;15.93;7.55;;;;;;;5.45;59.00;97976.84;10387410;28;20778;-74
2021/11/26 12:47:06;;;;;;;12.93;7.25;;;;;;;5.39;58.70;97967.72;10386976;28;20148;-75
2021/11/26 12:52:22;;;;;;;13.70;7.72;;;;;;;5.34;57.98;97969.81;10384627;28;20045;-75
2021/11/26 12:57:31;;;;;;;11.77;6.65;;;;;;;5.55;57.94;97950.16;10386343;28;20492;-74
2021/11/26 13:02:36;;;;;;;13.82;6.75;;;;;;;5.52;58.26;97927.06;10386605;28;20056;-75
2021/11/26 13:07:43;;;;;;;12.32;7.00;;;;;;;5.57;57.99;97908.59;10387367;28;20053;-75
2021/11/26 13:12:53;;;;;;;10.20;6.70;;;;;;;5.50;57.67;97894.38;10385476;28;20052;-74
2021/11/26 13:17:57;;;;;;;10.77;6.90;;;;;;;5.24;57.65;97891.06;10385116;28;20343;-74
2021/11/26 13:23:05;;;;;;;16.67;6.90;;;;;;;5.09;57.53;97876.59;10386039;28;20060;-73
2021/11/26 13:28:12;;;;;;;12.57;7.03;;;;;;;5.23;57.80;97870.41;10384866;28;20092;-75
2021/11/26 13:33:22;;;;;;;11.38;6.32;;;;;;;5.23;56.67;97865.22;10401525;28;20132;-74
2021/11/26 13:38:45;;;;;;;13.57;6.97;;;;;;;5.25;57.30;97856.44;10385177;28;20407;-74
2021/11/26 13:43:56;;;;;;;10.70;6.47;;;;;;;5.31;57.02;97839.63;10385182;28;20489;-74
2021/11/26 13:49:01;;;;;;;10.88;6.32;;;;;;;5.33;57.59;97837.75;10383375;28;20046;-74
2021/11/26 13:54:09;;;;;;;12.27;5.72;;;;;;;5.07;57.81;97820.63;10383008;28;20215;-73
2021/11/26 13:59:20;;;;;;;10.13;5.47;;;;;;;5.21;57.20;97823.06;10382025;28;20056;-73
2021/11/26 14:04:23;;;;;;;11.35;5.80;;;;;;;4.99;57.90;97808.22;10383987;28;20152;-74
2021/11/26 14:09:29;;;;;;;9.73;5.07;;;;;;;5.03;58.04;97798.47;10377570;28;20041;-74
2021/11/26 14:14:31;;;;;;;9.40;5.35;;;;;;;5.03;58.25;97793.28;10380119;28;20296;-73
2021/11/26 14:19:53;;;;;;;10.00;5.05;;;;;;;5.17;57.32;97787.94;10381440;28;20096;-74
2021/11/26 14:25:05;;;;;;;11.38;5.07;;;;;;;5.07;57.72;97780.00;10381437;28;20164;-73
2021/11/26 14:30:11;;;;;;;9.20;5.20;;;;;;;4.94;57.84;97778.41;10382018;28;20401;-75
2021/11/26 14:35:13;;;;;;;9.93;5.25;;;;;;;4.91;57.69;97782.03;10381224;28;20553;-74
2021/11/26 14:40:19;;;;;;;11.77;4.78;;;;;;;4.70;57.97;97774.00;10381386;28;20046;-74
2021/11/26 14:45:31;;;;;;;8.23;4.85;;;;;;;4.64;57.60;97771.84;10383197;28;20536;-73
2021/11/26 14:50:32;;;;;;;9.27;5.47;;;;;;;4.70;58.31;97766.25;10384967;28;20451;-73
2021/11/26 14:55:34;;;;;;;8.77;4.90;;;;;;;4.60;58.30;97761.81;10389081;28;20055;-73
2021/11/26 15:00:43;;;;;;;10.02;5.40;;;;;;;4.75;57.41;97752.16;10386339;28;20451;-73
2021/11/26 15:05:45;;;;;;;9.20;5.00;;;;;;;4.82;57.43;97743.81;10388153;28;20144;-74
2021/11/26 15:10:48;;;;;;;12.18;6.07;;;;;;;4.63;57.82;97748.66;10389081;28;20425;-73
2021/11/26 15:15:51;;;;;;;13.23;7.20;;;;;;;4.62;58.18;97739.22;10388702;28;20053;-74
2021/11/26 15:20:52;;;;;;;18.40;9.25;;;;;;;4.44;58.85;97736.19;10389160;28;20049;-73
2021/11/26 15:25:54;;;;;;;23.30;12.57;;;;;;;4.46;59.85;97730.88;10387595;28;20132;-72
2021/11/26 15:30:56;;;;;;;20.30;13.13;;;;;;;4.42;59.97;97721.69;10388720;28;20166;-74
2021/11/26 15:35:58;;;;;;;11.88;7.30;;;;;;;4.28;60.61;97721.81;10389726;28;20042;-74
2021/11/26 15:41:00;;;;;;;12.63;6.43;;;;;;;3.98;61.03;97711.00;10389977;28;20297;-73
2021/11/26 15:46:02;;;;;;;11.02;6.60;;;;;;;4.02;61.81;97692.59;10388382;28;20518;-73
2021/11/26 15:51:05;;;;;;;10.48;5.97;;;;;;;3.84;61.80;97680.94;10386135;28;20068;-73
2021/11/26 15:56:12;;;;;;;13.18;6.82;;;;;;;3.81;62.56;97666.41;10386082;28;20052;-74
2021/11/26 16:01:17;;;;;;;13.73;6.93;;;;;;;3.72;62.81;97655.88;10387343;28;20620;-74
2021/11/26 16:06:22;;;;;;;12.10;6.55;;;;;;;3.60;63.11;97646.38;10389554;28;20053;-74
2021/11/26 16:11:29;;;;;;;12.40;7.00;;;;;;;3.61;63.36;97635.09;10389552;28;20558;-73
2021/11/26 16:16:31;;;;;;;12.10;6.50;;;;;;;3.64;62.61;97619.41;10388198;28;20057;-73
2021/11/26 16:21:33;;;;;;;11.35;6.00;;;;;;;3.70;62.71;97616.38;10388382;28;20059;-74
2021/11/26 16:26:36;;;;;;;13.90;6.50;;;;;;;3.72;62.63;97607.56;10387790;28;20063;-74
2021/11/26 16:37:11;;;;;;;14.30;6.40;;;;;;;3.64;61.84;97585.78;10386787;28;20049;-74
2021/11/26 16:42:13;;;;;;;13.52;6.97;;;;;;;3.59;62.45;97583.53;10387369;28;20048;-74
2021/11/26 16:47:15;;;;;;;11.63;6.28;;;;;;;3.71;62.25;97574.09;10387055;28;20525;-73
2021/11/26 16:52:17;;;;;;;11.88;6.57;;;;;;;3.81;62.08;97564.75;10385747;28;20450;-73
2021/11/26 16:57:21;;;;;;;13.00;6.38;;;;;;;3.74;61.61;97560.97;10385785;28;20550;-74
2021/11/26 17:02:22;;;;;;;11.60;6.28;;;;;;;3.71;62.01;97556.00;10386244;28;20047;-74
2021/11/26 17:07:24;;;;;;;15.35;7.78;;;;;;;3.80;62.32;97542.44;10385153;28;20049;-70
2021/11/26 17:12:29;;;;;;;11.65;6.70;;;;;;;3.82;61.99;97530.22;10386679;28;20052;-64
2021/11/26 17:17:32;;;;;;;13.52;7.22;;;;;;;3.77;62.20;97516.78;10384213;28;20057;-64
2021/11/26 17:22:35;;;;;;;13.45;8.50;;;;;;;3.71;62.57;97510.28;10385906;28;20052;-64
2021/11/26 17:27:36;;;;;;;20.73;10.77;;;;;;;3.66;62.48;97499.44;10384701;28;20057;-64
2021/11/26 17:32:38;;;;;;;35.75;18.40;;;;;;;3.70;62.80;97498.28;10384953;28;20065;-64
2021/11/26 17:37:40;;;;;;;16.02;9.05;;;;;;;3.62;62.69;97484.28;10382930;28;20490;-64
2021/11/26 17:42:42;;;;;;;16.30;9.75;;;;;;;3.56;62.67;97479.50;10384250;28;20445;-64
2021/11/26 17:47:43;;;;;;;12.40;7.18;;;;;;;3.58;62.28;97462.13;10384845;28;20053;-64
2021/11/26 17:52:45;;;;;;;12.05;8.20;;;;;;;3.50;62.18;97462.69;10380852;28;20049;-64
2021/11/26 17:57:47;;;;;;;13.48;7.07;;;;;;;3.62;62.02;97463.59;10385314;28;20060;-64
2021/11/26 18:02:49;;;;;;;12.65;7.68;;;;;;;3.63;61.97;97458.31;10400558;28;20056;-64
2021/11/26 18:07:54;;;;;;;11.30;7.00;;;;;;;3.55;61.92;97436.53;10383779;28;20041;-64
2021/11/26 18:13:08;;;;;;;12.38;7.40;;;;;;;3.47;62.01;97424.16;10382583;28;20046;-64
2021/11/26 18:18:14;;;;;;;11.95;6.93;;;;;;;3.58;61.88;97419.03;10383070;28;20319;-63
2021/11/26 18:23:19;;;;;;;18.77;10.48;;;;;;;3.62;62.09;97417.09;10393057;28;20429;-63
2021/11/26 18:28:22;;;;;;;13.95;7.20;;;;;;;3.65;61.83;97406.50;10391258;28;20053;-63
2021/11/26 18:33:23;;;;;;;13.88;7.30;;;;;;;3.61;61.10;97390.41;10392543;28;20042;-63
2021/11/26 18:38:26;;;;;;;14.85;7.40;;;;;;;3.66;61.28;97380.56;10392052;28;20049;-64
2021/11/26 18:43:33;;;;;;;15.15;7.15;;;;;;;3.63;61.08;97361.88;10392034;28;20341;-64
2021/11/26 18:48:35;;;;;;;12.25;7.60;;;;;;;3.67;61.18;97364.13;10390508;28;20144;-64
2021/11/26 18:53:37;;;;;;;12.32;7.07;;;;;;;3.61;60.54;97343.06;10393201;28;20072;-63
2021/11/26 18:58:40;;;;;;;11.90;7.10;;;;;;;3.69;60.86;97327.81;10390888;28;20058;-63
2021/11/26 19:03:42;;;;;;;11.82;8.02;;;;;;;3.68;61.03;97321.00;10391479;28;20046;-63
2021/11/26 19:08:43;;;;;;;14.05;9.07;;;;;;;3.73;61.05;97314.56;10390923;28;20494;-63
2021/11/26 19:13:45;;;;;;;16.25;8.38;;;;;;;3.77;61.00;97307.41;10391852;28;20053;-63
2021/11/26 19:18:47;;;;;;;14.82;8.95;;;;;;;3.70;61.35;97298.47;10387635;28;20616;-63
2021/11/26 19:23:49;;;;;;;17.48;9.80;;;;;;;3.77;61.28;97304.81;10390586;28;20055;-63
2021/11/26 19:28:51;;;;;;;17.55;9.35;;;;;;;3.82;61.44;97285.44;10389131;28;20065;-63
2021/11/26 19:33:53;;;;;;;16.77;9.13;;;;;;;3.74;61.53;97277.44;10388487;28;20058;-63
2021/11/26 19:38:56;;;;;;;15.27;9.38;;;;;;;3.90;61.37;97274.56;10388588;28;20133;-63
2021/11/26 19:44:09;;;;;;;15.23;9.27;;;;;;;3.82;61.56;97264.75;10390061;28;20152;-63
2021/11/26 19:49:11;;;;;;;16.55;9.45;;;;;;;3.95;61.46;97249.19;10388341;28;20173;-63
2021/11/26 19:54:13;;;;;;;14.88;9.23;;;;;;;3.85;61.69;97245.63;10389221;28;20673;-62
2021/11/26 19:59:15;;;;;;;16.35;9.13;;;;;;;3.85;61.60;97233.53;10389257;28;20041;-63
2021/11/26 20:04:17;;;;;;;15.10;8.80;;;;;;;3.90;61.64;97228.03;10381845;28;20267;-63
2021/11/26 20:09:20;;;;;;;15.25;8.95;;;;;;;3.96;61.64;97230.16;10388377;28;20054;-62
2021/11/26 20:14:25;;;;;;;14.25;8.27;;;;;;;4.00;61.66;97222.97;10385977;28;20056;-63
2021/11/26 20:19:27;;;;;;;16.10;7.95;;;;;;;3.87;61.84;97215.31;10387726;28;20160;-63
2021/11/26 20:24:29;;;;;;;12.88;7.93;;;;;;;3.93;61.48;97209.69;10387583;28;20099;-62
2021/11/26 20:29:31;;;;;;;13.20;7.47;;;;;;;3.99;61.17;97209.22;10381771;28;20049;-63
2021/11/26 20:34:34;;;;;;;13.77;7.43;;;;;;;3.91;61.58;97210.75;10383222;28;20081;-63
2021/11/26 20:39:39;;;;;;;13.95;7.88;;;;;;;3.92;61.96;97209.81;10386750;28;20405;-63
2021/11/26 20:44:40;;;;;;;16.35;9.50;;;;;;;3.81;62.28;97197.66;10382365;28;20053;-63
2021/11/26 20:49:42;;;;;;;13.40;8.10;;;;;;;3.70;63.07;97188.13;10383815;28;20056;-63
2021/11/26 20:54:44;;;;;;;14.32;8.45;;;;;;;3.76;63.12;97177.31;10384668;28;20115;-63
2021/11/26 20:59:46;;;;;;;14.40;8.43;;;;;;;3.76;63.38;97168.78;10384061;28;20056;-63
2021/11/26 21:04:48;;;;;;;11.32;6.68;;;;;;;3.57;63.84;97168.50;10383976;28;20046;-63
2021/11/26 21:09:50;;;;;;;13.90;7.25;;;;;;;3.62;63.98;97153.50;10380340;28;20484;-63
2021/11/26 21:14:57;;;;;;;11.07;6.80;;;;;;;3.63;63.97;97152.53;10385672;28;20417;-63
2021/11/26 21:19:59;;;;;;;10.20;6.38;;;;;;;3.64;63.87;97151.63;10383678;28;20152;-63
2021/11/26 21:25:01;;;;;;;8.75;5.43;;;;;;;3.57;63.93;97140.91;10380469;28;20164;-63
2021/11/26 21:30:05;;;;;;;9.70;6.53;;;;;;;3.58;63.91;97128.78;10383269;28;20057;-65
2021/11/26 21:35:09;;;;;;;8.95;6.32;;;;;;;3.63;63.84;97129.28;10383167;28;20052;-63
2021/11/26 21:40:11;;;;;;;10.77;5.75;;;;;;;3.54;64.28;97127.38;10379127;28;20127;-63
2021/11/26 21:45:17;;;;;;;7.70;5.38;;;;;;;3.52;64.36;97122.34;10380869;28;20049;-63
2021/11/26 21:50:20;;;;;;;6.68;4.75;;;;;;;3.56;64.22;97117.75;10373915;28;20148;-63
2021/11/26 21:55:22;;;;;;;5.85;3.90;;;;;;;3.53;64.07;97107.66;10381757;28;20057;-63
2021/11/26 22:00:26;;;;;;;6.10;4.50;;;;;;;3.65;64.36;97107.56;10377675;28;20060;-63
2021/11/26 22:05:29;;;;;;;6.78;4.65;;;;;;;3.65;64.19;97106.72;10381952;28;20061;-63
2021/11/26 22:10:31;;;;;;;6.05;3.75;;;;;;;3.69;63.86;97092.63;10384427;28;20692;-63
2021/11/26 22:15:41;;;;;;;5.88;3.97;;;;;;;3.64;63.62;97090.38;10382796;28;20061;-63
2021/11/26 22:20:44;;;;;;;4.22;2.72;;;;;;;3.71;62.69;97080.41;10381116;28;20042;-63
2021/11/26 22:25:49;;;;;;;5.80;3.70;;;;;;;3.65;63.47;97078.31;10383086;28;20060;-63
2021/11/26 22:30:51;;;;;;;5.70;3.63;;;;;;;3.73;63.26;97073.34;10382950;28;20588;-63
2021/11/26 22:35:53;;;;;;;4.68;3.10;;;;;;;3.56;63.41;97071.25;10382083;28;20088;-63
2021/11/26 22:40:55;;;;;;;5.28;2.92;;;;;;;3.64;63.38;97069.72;10383788;28;20056;-63
2021/11/26 22:45:58;;;;;;;5.60;3.47;;;;;;;3.62;63.55;97052.72;10383979;28;20688;-63
2021/11/26 22:51:00;;;;;;;4.15;2.83;;;;;;;3.60;63.52;97052.00;10384482;28;20053;-63
2021/11/26 22:56:03;;;;;;;5.32;3.85;;;;;;;3.65;63.31;97047.28;10384224;28;20498;-63
2021/11/26 23:01:05;;;;;;;4.00;2.85;;;;;;;3.65;63.34;97044.69;10384970;28;20050;-63
2021/11/26 23:06:10;;;;;;;4.63;2.60;;;;;;;3.66;63.23;97041.19;10385301;28;20076;-63
2021/11/26 23:11:12;;;;;;;3.70;2.50;;;;;;;3.55;62.94;97042.03;10391456;28;20087;-63
2021/11/26 23:16:13;;;;;;;4.47;2.80;;;;;;;3.56;63.40;97040.22;10391461;28;20053;-64
2021/11/26 23:21:15;;;;;;;3.83;2.60;;;;;;;3.56;63.14;97035.06;10391672;28;20057;-64
2021/11/26 23:26:20;;;;;;;3.58;2.40;;;;;;;3.58;63.20;97022.84;10389324;28;20647;-64
2021/11/26 23:31:21;;;;;;;3.72;2.33;;;;;;;3.59;63.10;97024.50;10390822;28;20073;-64
2021/11/26 23:36:24;;;;;;;3.75;2.30;;;;;;;3.61;63.23;97022.63;10390099;28;20045;-64
2021/11/26 23:41:26;;;;;;;3.35;2.33;;;;;;;3.65;63.18;97013.69;10389465;28;20119;-64